Tropical Cyclones
[Index]
Main Index Home Page Stock Weather Photos Extreme Storms Discussion Storm News and Storm Chasing Reports Tropical Cyclones / Hurricanes / Typhoons Weather Data and Links Wild Fires / Bushfires Weather Observation Techniques Weather Picture Catalogue Tornado Pictures and Reports Stock Video Footage and DVDs for sale
Season 2015-2016 Tropical Cyclone WINSTON Track Map
Season 2015-2016 Summaries (Operational Data): [AU] [SIO] [SPAC] [SH]
<<- Previous TC | 2015-2016 Season | Next TC ->>

click for intensity scale information  Lat/long Grid: Show Hide

 Date Labels: Show Hide

Operational Tropical Cyclone Data : JTWC Advisories

Name: WINSTON
Number: 1611

05 Feb 2016 00:00 UTC to 03 Mar 2016 12:00 UTC

    date/time    lat    long     hPa   cat  kts
2016-02-05 00    4.1   174.3W   1010         15          
2016-02-05 06    4.3   175.4W   1010         15          
2016-02-05 12    4.5   176.4W   1010         15          
2016-02-05 18    4.7   177.4W   1010         15          
2016-02-06 00    4.9   178.5W   1006         15          
2016-02-06 06    5.5   179.3W   1010         15          
2016-02-06 12    6.1   179.3    1008         15          
2016-02-06 18    7.1   177.7    1007         15          
2016-02-07 00    7.8   174.8    1010         15          
2016-02-07 06    7.9   173.2    1010         15          
2016-02-07 12    8.0   172.0    1007         20          
2016-02-07 18    8.2   171.1    1006         20          
2016-02-08 00    8.6   170.4    1007         20          
2016-02-08 06    9.2   169.7    1007         20          
2016-02-08 12    9.9   169.1    1007         20          
2016-02-08 18   11.1   168.0    1006         20          
2016-02-09 00   11.7   168.6    1007         20          
2016-02-09 06   12.3   168.9    1001         20          
2016-02-09 12   13.0   169.2    1003         20          
2016-02-09 18   13.6   169.5    1007         20          
2016-02-10 00   14.1   170.0    1000         25          
2016-02-10 06   14.5   170.4     999         30          
2016-02-10 12   14.9   170.7    1000    1    35          
2016-02-10 18   15.3   170.9     993    1    40          
2016-02-11 00   15.7   171.1     993    1    40          
2016-02-11 06   16.1   171.4     989    1    45          
2016-02-11 12   16.7   171.6     982    2    55          
2016-02-11 18   17.4   171.6     982    2    55          
2016-02-12 00   18.0   171.6     974    3    65          
2016-02-12 06   18.7   171.6     952    4    95          
2016-02-12 12   19.7   171.5     944    4   105          
2016-02-12 18   20.8   171.5     941    5   110          
2016-02-13 00   22.2   171.8     944    4   105          
2016-02-13 06   23.3   172.2     948    4   100          
2016-02-13 12   24.2   172.8     952    4    95          
2016-02-13 18   24.7   173.6     956    4    90          
2016-02-14 00   25.3   174.9     967    3    75          
2016-02-14 06   25.4   176.5     970    3    70          
2016-02-14 12   24.8   177.6     974    3    65          
2016-02-14 18   24.1   178.8     974    3    65          
2016-02-15 00   23.0   179.6     974    3    65          
2016-02-15 06   21.8   179.5W    982    2    55          
2016-02-15 12   20.6   178.1W    985    2    50          
2016-02-15 18   19.8   176.7W    993    1    40          
2016-02-16 00   19.0   175.5W    989    1    45          
2016-02-16 06   18.5   174.5W    982    2    55          
2016-02-16 12   17.9   173.6W    974    3    65          
2016-02-16 18   17.5   172.4W    967    3    75          
2016-02-17 00   17.4   171.7W    956    4    90          
2016-02-17 06   17.3   171.3W    956    4    90          
2016-02-17 12   17.2   171.0W    956    4    90          
2016-02-17 18   17.1   170.9W    944    4   105          
2016-02-18 00   17.1   171.1W    944    4   105          
2016-02-18 06   17.1   171.6W    952    4    95          
2016-02-18 12   17.1   172.3W    948    4   100          
2016-02-18 18   17.4   173.3W    944    4   105          
2016-02-19 00   17.5   174.6W    941    5   110          
2016-02-19 06   17.5   175.9W    929    5   125          
2016-02-19 12   17.3   177.5W    922    5   135          
2016-02-19 18   17.2   178.9W    914    5   145          
2016-02-20 00   17.2   179.9W    911    5   150          
2016-02-20 06   17.4   178.7     907    5   155          
2016-02-20 12   17.4   177.0     918    5   140          
2016-02-20 18   17.4   175.8     926    5   130          
2016-02-21 00   17.4   174.7     933    5   120          
2016-02-21 06   17.5   173.9     929    5   125          
2016-02-21 12   17.6   173.2     937    5   115          
2016-02-21 18   17.7   172.7     952    4    95          
2016-02-22 00   17.8   172.5     952    4    95          
2016-02-22 06   17.9   172.3     956    4    90          
2016-02-22 12   18.2   172.3     956    4    90          
2016-02-22 18   18.6   172.5     959    3    85          
2016-02-23 00   19.2   172.9     959    3    85          
2016-02-23 06   19.9   173.3     967    3    75          
2016-02-23 12   20.7   173.8     970    3    70          
2016-02-23 18   21.6   174.3     982    2    55          
2016-02-24 00   22.7   174.3     985    2    50          
2016-02-24 06   23.6   174.2     985    2    50          
2016-02-24 12   24.4   173.7     989    1    45          
2016-02-24 18   25.2   172.8     993    1    40          
2016-02-25 00   25.6   171.4     993    1    40          
2016-02-25 06   26.4   169.5     996    1    35          
2016-02-25 12   26.9   168.0     993    1    40          
2016-02-25 18   27.4   165.6     993    1    40          
2016-02-26 00   27.4   163.1     993    1    40          
2016-02-26 06   27.4   161.3     993    1    40          
2016-02-26 12   26.8   160.5     996    1    35          
2016-02-26 18   26.3   159.8     996    1    35          
2016-02-27 00   25.8   159.1     996    1    35          
2016-02-27 06   25.8   159.1     996    1    35          
2016-02-27 12   24.5   158.1    1000         30          
2016-02-27 18   23.9   157.3    1004         25          
2016-02-28 00   23.6   156.9    1004         25          
2016-02-28 06   23.1   156.7    1004         25          
2016-02-28 12   22.7   156.4    1004         25          
2016-02-28 18   21.9   155.7    1005         25          
2016-02-29 00   21.4   155.1    1007         25          
2016-02-29 06   21.0   154.7    1007         20          
2016-02-29 12   20.7   154.1    1007         20          
2016-02-29 18   20.3   153.0    1007         20          
2016-03-01 00   20.0   152.4    1007         20          
2016-03-01 06   19.4   151.2    1007         20          
2016-03-01 12   19.1   150.2    1007         20          
2016-03-01 18   18.7   149.6    1007         20          
2016-03-02 00   18.1   149.3    1007         20          
2016-03-02 06   17.8   148.8    1007         20          
2016-03-02 12   17.4   148.3    1007         20          
2016-03-02 18   16.9   147.9    1010         15          
2016-03-03 00   16.4   147.4    1010         15          
2016-03-03 06   16.2   146.6    1010         15          
2016-03-03 12   16.0   145.7    1010         15          
Winds are 10-min average.

Tropical cyclone tracks developed by Michael Bath using operational warnings and advisories and Google Maps.


[Australian Severe Weather index] [Copyright Notice] [Email Contacts] [Search This Site] [Privacy Policy]
Document: tropical_cyclone_winston.htm Updated: 2 May 2017